Time;durP1;ratioP1;P1;durP2;ratioP2;P2;SDS_P1;SDS_P2;PMS_P1;PMS_P2;Temp;Humidity;BMP_temperature;BMP_pressure;BME280_temperature;BME280_humidity;BME280_pressure;Samples;Min_cycle;Max_cycle;Signal;HPM_P1;HPM_P2
2024/04/09 00:02:19;;;;;;;11.98;1.80;;;17.30;99.90;;;;;;5484018;26;19995;-79
2024/04/09 00:04:45;;;;;;;10.70;1.83;;;17.20;1.00;;;;;;5480709;26;20069;-78
2024/04/09 00:07:11;;;;;;;9.07;1.65;;;17.30;1.00;;;;;;5484577;26;20010;-79
2024/04/09 00:09:42;;;;;;;10.25;1.50;;;17.20;1.00;;;;;;5484626;26;20001;-81
2024/04/09 00:12:10;;;;;;;10.90;1.55;;;17.10;13.40;;;;;;5484994;26;20772;-76
2024/04/09 00:14:37;;;;;;;14.43;1.55;;;17.20;24.50;;;;;;5483891;26;19998;-78
2024/04/09 00:17:05;;;;;;;18.75;2.00;;;17.00;58.00;;;;;;5478372;26;20048;-76
2024/04/09 00:19:31;;;;;;;9.18;1.50;;;16.90;58.20;;;;;;5482240;26;20006;-77
2024/04/09 00:21:57;;;;;;;11.15;1.90;;;17.00;62.40;;;;;;5484201;26;20011;-75
2024/04/09 00:24:23;;;;;;;14.35;1.23;;;16.90;88.30;;;;;;5484047;26;20004;-75
2024/04/09 00:26:48;;;;;;;5.63;1.52;;;16.70;93.20;;;;;;5483930;26;20550;-78
2024/04/09 00:29:14;;;;;;;8.93;1.13;;;16.70;98.20;;;;;;5484010;26;19994;-80
2024/04/09 00:31:41;;;;;;;8.85;3.05;;;16.60;99.90;;;;;;5482770;26;19990;-79
2024/04/09 00:34:06;;;;;;;6.53;1.58;;;16.50;99.90;;;;;;5482639;26;19998;-79
2024/04/09 00:36:35;;;;;;;7.25;1.48;;;16.50;99.90;;;;;;5484281;26;20494;-80
2024/04/09 00:39:01;;;;;;;10.10;2.78;;;16.50;99.90;;;;;;5484276;26;20010;-80
2024/04/09 00:41:26;;;;;;;6.65;0.90;;;16.40;99.90;;;;;;5484180;26;20495;-78
2024/04/09 00:43:52;;;;;;;6.80;1.38;;;16.50;99.90;;;;;;5483625;26;19998;-79
2024/04/09 00:46:19;;;;;;;10.45;1.75;;;16.50;99.90;;;;;;5483552;26;19994;-78
2024/04/09 00:48:46;;;;;;;5.35;0.90;;;16.30;99.90;;;;;;5483331;26;20388;-79
2024/04/09 00:51:16;;;;;;;8.60;0.98;;;16.30;99.90;;;;;;5473045;26;19991;-79
2024/04/09 00:53:44;;;;;;;7.00;1.42;;;16.20;99.90;;;;;;5477782;26;20009;-79
2024/04/09 00:56:11;;;;;;;6.43;1.08;;;16.10;99.90;;;;;;5485299;26;20012;-79
2024/04/09 00:58:38;;;;;;;2.42;1.05;;;16.00;99.90;;;;;;5475918;26;20071;-79
2024/04/09 01:01:04;;;;;;;9.77;0.88;;;15.80;99.90;;;;;;5466538;26;19998;-80
2024/04/09 01:03:30;;;;;;;7.30;1.20;;;15.80;99.90;;;;;;5483232;26;20092;-78
2024/04/09 01:05:56;;;;;;;2.58;0.85;;;15.60;99.90;;;;;;5482129;26;20339;-80
2024/04/09 01:08:22;;;;;;;5.40;0.88;;;15.50;99.90;;;;;;5482148;26;20467;-79
2024/04/09 01:10:48;;;;;;;5.47;1.27;;;15.30;99.90;;;;;;5483607;26;20002;-79
2024/04/09 01:13:14;;;;;;;6.90;1.10;;;15.20;99.90;;;;;;5483733;26;19998;-79
2024/04/09 01:15:40;;;;;;;7.38;1.00;;;15.30;99.90;;;;;;5483013;26;20393;-81
2024/04/09 01:18:06;;;;;;;5.38;1.77;;;15.50;99.90;;;;;;5482431;26;20005;-80
2024/04/09 01:20:32;;;;;;;4.53;0.90;;;15.40;99.90;;;;;;5481663;26;20041;-79
2024/04/09 01:22:58;;;;;;;5.25;0.90;;;15.50;99.90;;;;;;5483324;26;20047;-79
2024/04/09 01:25:23;;;;;;;5.47;1.13;;;15.50;99.90;;;;;;5480372;26;19994;-79
2024/04/09 01:27:49;;;;;;;3.88;0.90;;;15.50;99.90;;;;;;5483036;26;19997;-79
2024/04/09 01:30:14;;;;;;;7.38;0.85;;;15.60;99.90;;;;;;5483192;26;20612;-80
2024/04/09 01:32:40;;;;;;;14.60;2.22;;;15.50;99.90;;;;;;5482227;26;19998;-79
2024/04/09 01:35:07;;;;;;;4.88;0.82;;;15.40;99.90;;;;;;5484170;26;20051;-80
2024/04/09 01:37:33;;;;;;;6.10;1.10;;;15.30;99.90;;;;;;5483990;26;20078;-79
2024/04/09 01:39:59;;;;;;;5.40;1.02;;;15.30;99.90;;;;;;5483290;26;20454;-79
2024/04/09 01:42:25;;;;;;;6.72;1.83;;;15.20;99.90;;;;;;5483094;26;19994;-79
2024/04/09 01:44:51;;;;;;;5.40;0.80;;;14.90;99.90;;;;;;5481379;26;20020;-78
2024/04/09 01:47:17;;;;;;;4.43;1.00;;;14.90;99.90;;;;;;5482647;26;20002;-81
2024/04/09 01:49:42;;;;;;;4.68;1.27;;;14.90;1.00;;;;;;5482773;26;20078;-80
2024/04/09 01:52:08;;;;;;;3.97;1.30;;;14.70;1.00;;;;;;5484178;26;20017;-81
2024/04/09 01:54:34;;;;;;;3.97;1.23;;;14.80;1.00;;;;;;5482696;26;20524;-80
2024/04/09 01:57:00;;;;;;;4.63;0.85;;;15.00;1.00;;;;;;5482358;26;20006;-81
2024/04/09 01:59:26;;;;;;;5.38;1.25;;;15.20;99.90;;;;;;5478473;26;20013;-81
2024/04/09 02:01:52;;;;;;;11.05;1.70;;;15.00;1.00;;;;;;5482025;26;20355;-81
2024/04/09 02:04:18;;;;;;;4.80;1.02;;;14.90;1.00;;;;;;5483053;26;20050;-81
2024/04/09 02:06:45;;;;;;;15.15;2.72;;;14.60;82.60;;;;;;5483343;26;19998;-84
2024/04/09 02:09:11;;;;;;;8.93;1.52;;;14.40;99.90;;;;;;5483835;26;20017;-78
2024/04/09 02:11:37;;;;;;;7.30;1.70;;;14.20;99.90;;;;;;5482091;26;20510;-83
2024/04/09 02:14:04;;;;;;;7.63;1.23;;;14.10;99.90;;;;;;5482074;26;20016;-83
2024/04/09 02:16:31;;;;;;;7.40;1.20;;;13.90;99.90;;;;;;5481349;26;20013;-83
2024/04/09 02:18:57;;;;;;;4.00;1.50;;;13.80;99.90;;;;;;5482424;26;20009;-83
2024/04/09 02:21:23;;;;;;;8.63;1.55;;;13.80;99.90;;;;;;5483525;26;19998;-81
2024/04/09 02:23:51;;;;;;;9.20;2.10;;;13.80;99.90;;;;;;5482950;26;19998;-82
2024/04/09 02:26:21;;;;;;;10.32;3.47;;;13.70;99.90;;;;;;5482738;26;20026;-82
2024/04/09 02:28:46;;;;;;;7.53;1.55;;;13.60;99.90;;;;;;5483058;26;20020;-82
2024/04/09 02:31:12;;;;;;;9.52;1.92;;;13.60;99.90;;;;;;5482435;26;20057;-82
2024/04/09 02:33:38;;;;;;;4.30;1.75;;;13.60;99.90;;;;;;5480012;26;20598;-82
2024/04/09 02:36:05;;;;;;;7.45;2.03;;;13.50;99.90;;;;;;5482805;26;20062;-81
2024/04/09 02:38:35;;;;;;;12.02;1.75;;;13.60;99.90;;;;;;5483016;26;20080;-80
2024/04/09 02:41:05;;;;;;;8.63;1.83;;;13.60;99.90;;;;;;5481116;26;20005;-81
2024/04/09 02:43:31;;;;;;;11.30;1.83;;;13.50;99.90;;;;;;5482682;26;20002;-80
2024/04/09 02:45:59;;;;;;;5.38;2.00;;;13.50;99.90;;;;;;5482096;26;20542;-81
2024/04/09 02:48:25;;;;;;;9.70;2.42;;;13.50;99.90;;;;;;5479700;26;20010;-81
2024/04/09 02:50:57;;;;;;;9.88;1.80;;;13.50;99.90;;;;;;5482149;26;20005;-80
2024/04/09 02:53:26;;;;;;;8.73;1.95;;;13.50;99.90;;;;;;5483002;26;19998;-81
2024/04/09 02:56:03;;;;;;;7.65;1.63;;;13.50;99.90;;;;;;5482396;26;20044;-81
2024/04/09 02:58:29;;;;;;;8.55;1.45;;;13.40;99.90;;;;;;5482377;26;20034;-81
2024/04/09 03:00:55;;;;;;;5.63;1.45;;;13.40;99.90;;;;;;5482772;26;19998;-82
2024/04/09 03:03:21;;;;;;;2.78;1.13;;;13.30;99.90;;;;;;5481514;26;20005;-82
2024/04/09 03:05:47;;;;;;;3.05;1.10;;;13.20;99.90;;;;;;5481311;26;19994;-83
2024/04/09 03:08:13;;;;;;;5.28;1.63;;;13.10;99.90;;;;;;5483588;26;20408;-84
2024/04/09 03:10:38;;;;;;;4.35;2.03;;;13.10;99.90;;;;;;5483385;26;20070;-84
2024/04/09 03:13:04;;;;;;;2.50;1.13;;;13.10;99.90;;;;;;5483891;26;19994;-84
2024/04/09 03:15:31;;;;;;;1.10;0.80;;;13.00;99.90;;;;;;5483103;26;20699;-84
2024/04/09 03:17:57;;;;;;;5.57;1.20;;;13.00;99.90;;;;;;5481336;26;19998;-86
2024/04/09 03:20:23;;;;;;;2.10;1.05;;;12.90;99.90;;;;;;5481850;26;20008;-87
2024/04/09 03:22:49;;;;;;;2.58;1.05;;;12.90;99.90;;;;;;5482610;26;20002;-89
2024/04/09 03:25:15;;;;;;;1.63;1.08;;;12.80;99.90;;;;;;5488017;26;19994;-89
2024/04/09 03:27:41;;;;;;;1.38;1.20;;;12.80;99.90;;;;;;5486417;26;20470;-86
2024/04/09 03:30:09;;;;;;;4.60;1.38;;;12.70;99.90;;;;;;5486994;26;20487;-82
2024/04/09 03:32:34;;;;;;;6.28;0.90;;;12.70;99.90;;;;;;5460607;26;20016;-81
2024/04/09 03:35:00;;;;;;;3.03;0.90;;;12.70;99.90;;;;;;5484877;26;20439;-82
2024/04/09 03:37:26;;;;;;;2.13;1.10;;;12.70;99.90;;;;;;5487472;26;20013;-81
2024/04/09 03:39:52;;;;;;;5.55;1.20;;;12.60;99.90;;;;;;5484924;26;20023;-82
2024/04/09 03:42:18;;;;;;;1.90;0.88;;;12.60;99.90;;;;;;5486258;26;19994;-81
2024/04/09 03:44:43;;;;;;;5.68;1.50;;;12.60;99.90;;;;;;5486954;26;20047;-81
2024/04/09 03:47:09;;;;;;;0.90;0.90;;;12.50;99.90;;;;;;5486564;26;20074;-82
2024/04/09 03:49:35;;;;;;;7.25;1.15;;;12.50;99.90;;;;;;5478634;26;19995;-81
2024/04/09 03:52:02;;;;;;;3.75;0.82;;;12.40;99.90;;;;;;5482114;26;20325;-82
2024/04/09 03:54:28;;;;;;;0.30;0.30;;;12.40;99.90;;;;;;5486302;26;20002;-81
2024/04/09 03:56:53;;;;;;;0.30;0.30;;;12.30;99.90;;;;;;5484053;26;20071;-85
2024/04/09 03:59:19;;;;;;;1.55;0.40;;;12.20;99.90;;;;;;5486400;26;20010;-86
2024/04/09 04:01:45;;;;;;;0.45;0.38;;;12.10;99.90;;;;;;5484192;26;20718;-82
2024/04/09 04:04:13;;;;;;;2.50;0.40;;;12.10;99.90;;;;;;5486364;26;20408;-81
2024/04/09 04:06:39;;;;;;;0.30;0.30;;;11.90;99.90;;;;;;5471974;26;20067;-83
2024/04/09 04:09:04;;;;;;;0.32;0.32;;;11.90;99.90;;;;;;5484807;26;20006;-81
2024/04/09 04:11:33;;;;;;;3.10;0.60;;;11.90;99.90;;;;;;5478167;26;19995;-81
2024/04/09 04:13:59;;;;;;;1.63;0.52;;;11.80;99.90;;;;;;5486309;26;19994;-80
2024/04/09 04:16:24;;;;;;;1.42;0.45;;;11.80;99.90;;;;;;5483955;26;19994;-79
2024/04/09 04:18:50;;;;;;;0.38;0.35;;;11.70;99.90;;;;;;5482268;26;20046;-77
2024/04/09 04:21:18;;;;;;;0.35;0.35;;;11.50;99.90;;;;;;5484328;26;20339;-78
2024/04/09 04:23:46;;;;;;;0.50;0.50;;;11.40;99.90;;;;;;5483898;26;20034;-78
2024/04/09 04:26:17;;;;;;;2.08;0.68;;;11.30;99.90;;;;;;5483992;26;20455;-80
2024/04/09 04:28:44;;;;;;;2.83;0.70;;;11.20;99.90;;;;;;5479044;26;19994;-78
2024/04/09 04:31:14;;;;;;;2.85;0.60;;;11.10;99.90;;;;;;5483435;26;20005;-79
2024/04/09 04:33:41;;;;;;;2.22;0.60;;;11.00;99.90;;;;;;5482793;26;20002;-79
2024/04/09 04:36:09;;;;;;;1.10;0.57;;;10.90;99.90;;;;;;5485031;26;20074;-82
2024/04/09 04:38:35;;;;;;;0.60;0.60;;;10.90;99.90;;;;;;5484881;26;19998;-83
2024/04/09 04:41:01;;;;;;;1.15;0.50;;;10.80;99.90;;;;;;5469626;26;20006;-82
2024/04/09 04:43:27;;;;;;;1.02;0.50;;;10.80;99.90;;;;;;5481259;26;20015;-83
2024/04/09 04:45:54;;;;;;;2.10;0.60;;;10.90;99.90;;;;;;5479506;26;20002;-82
2024/04/09 04:48:20;;;;;;;0.60;0.50;;;10.80;99.90;;;;;;5480049;26;20480;-81
2024/04/09 04:50:47;;;;;;;1.88;0.82;;;10.80;99.90;;;;;;5482087;26;19998;-83
2024/04/09 04:53:13;;;;;;;2.05;0.95;;;10.70;99.90;;;;;;5482480;26;20441;-83
2024/04/09 04:55:39;;;;;;;3.15;1.10;;;10.70;99.90;;;;;;5482553;26;20646;-81
2024/04/09 04:58:05;;;;;;;3.65;0.80;;;10.60;99.90;;;;;;5484027;26;20005;-83
2024/04/09 05:00:31;;;;;;;2.00;0.70;;;10.70;99.90;;;;;;5485648;26;19993;-81
2024/04/09 05:02:58;;;;;;;1.73;1.00;;;10.60;99.90;;;;;;5482508;26;20042;-83
2024/04/09 05:05:23;;;;;;;3.25;0.80;;;10.60;99.90;;;;;;5485261;26;20009;-81
2024/04/09 05:07:50;;;;;;;1.88;0.80;;;10.60;99.90;;;;;;5472304;26;20002;-83
2024/04/09 05:10:17;;;;;;;3.15;1.30;;;10.60;99.90;;;;;;5484983;26;19998;-81
2024/04/09 05:12:47;;;;;;;5.28;1.00;;;10.50;99.90;;;;;;5473722;26;20042;-82
2024/04/09 05:15:13;;;;;;;4.40;1.42;;;10.50;99.90;;;;;;5483934;26;20376;-83
2024/04/09 05:17:39;;;;;;;5.90;1.27;;;10.40;99.90;;;;;;5459814;26;19998;-83
2024/04/09 05:20:14;;;;;;;3.40;1.15;;;10.40;99.90;;;;;;5482862;26;20010;-77
2024/04/09 05:22:47;;;;;;;4.85;1.15;;;10.40;99.90;;;;;;5462212;26;20009;-77
2024/04/09 05:25:15;;;;;;;6.20;1.40;;;10.30;99.90;;;;;;5474050;26;20009;-77
2024/04/09 05:27:41;;;;;;;5.22;0.98;;;10.30;99.90;;;;;;5482323;26;20042;-77
2024/04/09 05:30:11;;;;;;;4.15;0.80;;;10.20;99.90;;;;;;5482423;26;20013;-80
2024/04/09 05:32:39;;;;;;;5.22;0.82;;;10.30;99.90;;;;;;5459868;26;20013;-78
2024/04/09 05:35:05;;;;;;;3.15;1.05;;;10.30;99.90;;;;;;5483864;26;20013;-78
2024/04/09 05:37:31;;;;;;;9.32;1.00;;;10.20;99.90;;;;;;5477462;25;20046;-77
2024/04/09 05:40:00;;;;;;;4.72;1.13;;;10.30;99.90;;;;;;5481605;26;19998;-80
2024/04/09 05:42:25;;;;;;;6.07;1.10;;;10.20;99.90;;;;;;5482176;26;20511;-78
2024/04/09 05:44:51;;;;;;;4.95;0.90;;;10.20;99.90;;;;;;5482642;26;20067;-76
2024/04/09 05:47:17;;;;;;;7.68;0.90;;;10.10;99.90;;;;;;5479907;26;19998;-77
2024/04/09 05:49:44;;;;;;;4.10;1.10;;;10.20;99.90;;;;;;5482506;26;20026;-83
2024/04/09 05:52:10;;;;;;;7.30;1.40;;;10.10;99.90;;;;;;5483743;26;20002;-80
2024/04/09 05:54:43;;;;;;;6.43;1.00;;;10.10;99.90;;;;;;5486403;26;19994;-86
2024/04/09 05:57:09;;;;;;;6.88;1.00;;;10.10;99.90;;;;;;5487042;25;19994;-84
2024/04/09 05:59:35;;;;;;;5.00;1.05;;;10.10;99.90;;;;;;5486054;26;20009;-84
2024/04/09 06:02:01;;;;;;;5.95;1.00;;;10.10;99.90;;;;;;5484752;26;19998;-85
2024/04/09 06:04:27;;;;;;;8.85;1.70;;;10.10;99.90;;;;;;5486367;26;20002;-85
2024/04/09 06:06:53;;;;;;;3.00;1.10;;;10.00;99.90;;;;;;5484225;26;20017;-85
2024/04/09 06:09:19;;;;;;;4.93;1.15;;;10.00;99.90;;;;;;5482042;26;20439;-82
2024/04/09 06:11:45;;;;;;;1.55;0.63;;;10.00;99.90;;;;;;5474809;26;19999;-82
2024/04/09 06:14:11;;;;;;;8.45;0.88;;;10.00;99.90;;;;;;5480516;26;20026;-81
2024/04/09 06:16:36;;;;;;;4.07;0.75;;;10.00;73.30;;;;;;5481194;26;20002;-83
2024/04/09 06:19:02;;;;;;;4.65;1.27;;;9.90;99.90;;;;;;5482945;26;20006;-85
2024/04/09 06:21:28;;;;;;;9.05;1.23;;;9.90;92.50;;;;;;5485129;26;19994;-85
2024/04/09 06:23:53;;;;;;;9.88;1.25;;;10.00;99.10;;;;;;5483939;26;20497;-84
2024/04/09 06:26:20;;;;;;;7.72;1.20;;;9.90;99.90;;;;;;5484694;26;20010;-83
2024/04/09 06:28:46;;;;;;;8.38;1.27;;;9.90;93.00;;;;;;5483642;26;20002;-82
2024/04/09 06:31:12;;;;;;;4.07;1.23;;;9.90;71.40;;;;;;5474213;26;20033;-83
2024/04/09 06:33:37;;;;;;;2.33;1.10;;;10.00;34.40;;;;;;5487887;26;20006;-82
2024/04/09 06:36:03;;;;;;;11.18;1.50;;;10.00;28.30;;;;;;5487652;26;20000;-86
2024/04/09 06:38:30;;;;;;;7.20;1.35;;;9.90;1.00;;;;;;5485892;26;20002;-83
2024/04/09 06:40:56;;;;;;;7.72;2.03;;;10.00;14.80;;;;;;5484746;26;20452;-86
2024/04/09 06:43:22;;;;;;;6.63;1.10;;;10.00;5.40;;;;;;5484179;26;19994;-83
2024/04/09 06:45:48;;;;;;;6.55;0.90;;;9.90;80.10;;;;;;5483602;26;20001;-84
2024/04/09 06:48:14;;;;;;;15.90;3.75;;;9.90;38.90;;;;;;5480977;26;20024;-83
2024/04/09 06:50:40;;;;;;;5.72;1.25;;;9.90;52.40;;;;;;5484073;26;20074;-85
2024/04/09 06:53:06;;;;;;;5.32;1.13;;;9.90;50.60;;;;;;5485022;26;20100;-84
2024/04/09 06:55:32;;;;;;;7.35;1.20;;;10.00;16.70;;;;;;5484816;26;20010;-82
2024/04/09 06:57:58;;;;;;;4.95;1.05;;;10.10;1.00;;;;;;5485538;26;20082;-84
2024/04/09 07:00:23;;;;;;;6.07;0.88;;;10.10;66.50;;;;;;5489004;26;20034;-84
2024/04/09 07:02:49;;;;;;;4.47;0.80;;;10.20;47.00;;;;;;5497928;26;20071;-83
2024/04/09 07:05:15;;;;;;;9.18;1.38;;;10.10;1.00;;;;;;5506610;26;19994;-81
2024/04/09 07:07:41;;;;;;;6.82;0.80;;;10.20;44.70;;;;;;5508394;26;20023;-84
2024/04/09 07:10:07;;;;;;;10.50;1.10;;;10.20;32.50;;;;;;5507064;26;19994;-84
2024/04/09 07:12:33;;;;;;;5.95;0.85;;;10.20;4.40;;;;;;5500620;26;19991;-82
2024/04/09 07:15:03;;;;;;;6.22;1.50;;;10.10;10.40;;;;;;5487814;26;20012;-85
2024/04/09 07:17:29;;;;;;;12.48;1.55;;;10.00;50.70;;;;;;5486677;26;20073;-86
2024/04/09 07:19:58;;;;;;;5.13;1.30;;;9.90;83.00;;;;;;5488774;26;20002;-84
2024/04/09 07:22:24;;;;;;;9.15;1.23;;;9.80;45.30;;;;;;5490847;26;20461;-85
2024/04/09 07:24:49;;;;;;;9.32;1.17;;;9.80;90.30;;;;;;5489491;26;20013;-83
2024/04/09 07:27:15;;;;;;;5.82;0.98;;;9.80;99.90;;;;;;5488591;26;20002;-83
2024/04/09 07:29:41;;;;;;;14.93;1.40;;;9.80;31.80;;;;;;5488619;26;19998;-80
2024/04/09 07:32:07;;;;;;;12.23;1.00;;;9.70;39.30;;;;;;5484923;26;19998;-79
2024/04/09 07:34:34;;;;;;;5.38;0.93;;;9.70;10.40;;;;;;5484470;26;19998;-80
2024/04/09 07:37:00;;;;;;;8.77;1.00;;;9.70;11.90;;;;;;5483916;26;20582;-79
2024/04/09 07:39:25;;;;;;;7.78;1.10;;;9.70;1.00;;;;;;5485498;26;20074;-79
2024/04/09 07:41:51;;;;;;;10.55;2.10;;;9.60;1.00;;;;;;5484645;26;19998;-79
2024/04/09 07:44:17;;;;;;;4.38;0.88;;;9.60;1.00;;;;;;5483832;26;20097;-78
2024/04/09 07:46:48;;;;;;;8.57;1.40;;;9.60;1.00;;;;;;5484149;26;20005;-79
2024/04/09 07:49:17;;;;;;;5.05;1.00;;;9.70;1.00;;;;;;5484667;26;20061;-79
2024/04/09 07:51:43;;;;;;;12.82;1.55;;;9.60;1.00;;;;;;5483855;26;20006;-77
2024/04/09 07:54:10;;;;;;;8.40;1.33;;;9.60;1.00;;;;;;5484990;26;19998;-78
2024/04/09 07:56:36;;;;;;;6.88;1.10;;;9.60;6.90;;;;;;5482682;26;19994;-77
2024/04/09 07:59:02;;;;;;;4.90;1.00;;;9.60;1.00;;;;;;5482145;26;20401;-78
2024/04/09 08:01:28;;;;;;;3.20;0.85;;;9.60;1.00;;;;;;5483868;26;20002;-80
2024/04/09 08:03:54;;;;;;;12.60;1.17;;;9.60;1.00;;;;;;5485647;26;20002;-86
2024/04/09 08:06:19;;;;;;;17.63;2.15;;;9.70;1.00;;;;;;5489181;26;20067;-86
2024/04/09 08:08:45;;;;;;;7.55;1.10;;;9.60;4.60;;;;;;5488245;26;20374;-85
2024/04/09 08:11:12;;;;;;;5.40;1.45;;;9.70;1.00;;;;;;5487652;26;20387;-87
2024/04/09 08:13:38;;;;;;;4.13;1.75;;;9.80;20.70;;;;;;5462314;26;20564;-86
2024/04/09 08:16:04;;;;;;;13.20;1.45;;;10.00;1.00;;;;;;5490597;26;20001;-83
2024/04/09 08:18:30;;;;;;;4.25;1.00;;;10.10;1.00;;;;;;5462790;26;20010;-86
2024/04/09 08:20:55;;;;;;;8.50;1.70;;;10.10;1.00;;;;;;5491625;26;19998;-86
2024/04/09 08:23:21;;;;;;;9.82;1.40;;;10.20;1.00;;;;;;5490626;26;19998;-86
2024/04/09 08:25:49;;;;;;;8.27;1.23;;;10.30;9.30;;;;;;5494119;26;20005;-85
2024/04/09 08:28:18;;;;;;;7.05;0.73;;;10.40;1.00;;;;;;5491056;26;20012;-85
2024/04/09 08:30:48;;;;;;;10.68;1.33;;;10.30;99.90;;;;;;5490973;26;20010;-86
2024/04/09 08:33:14;;;;;;;8.73;1.40;;;10.20;1.00;;;;;;5492435;26;20026;-87
2024/04/09 08:35:45;;;;;;;8.82;1.15;;;10.10;1.00;;;;;;5488724;26;20013;-86
2024/04/09 08:38:11;;;;;;;9.75;1.13;;;10.10;99.90;;;;;;5489177;26;20675;-84
2024/04/09 08:40:36;;;;;;;6.15;1.30;;;10.00;99.90;;;;;;5487549;26;20013;-86
2024/04/09 08:43:02;;;;;;;5.95;1.20;;;10.00;99.90;;;;;;5465868;26;19999;-87
2024/04/09 08:45:30;;;;;;;11.13;1.52;;;10.10;1.00;;;;;;5470130;26;20002;-82
2024/04/09 08:47:56;;;;;;;10.90;1.10;;;10.20;99.90;;;;;;5485547;26;20412;-86
2024/04/09 08:50:23;;;;;;;11.35;1.50;;;10.20;99.90;;;;;;5471511;26;19994;-86
2024/04/09 08:52:49;;;;;;;4.90;0.80;;;10.20;99.90;;;;;;5489569;26;20640;-87
2024/04/09 08:55:15;;;;;;;4.60;0.93;;;10.40;99.90;;;;;;5489111;26;19998;-87
2024/04/09 08:57:41;;;;;;;6.63;0.93;;;10.30;99.90;;;;;;5487193;26;20002;-85
2024/04/09 09:00:07;;;;;;;11.77;1.42;;;10.30;99.90;;;;;;5486511;26;20009;-84
2024/04/09 09:02:36;;;;;;;13.35;2.13;;;10.50;99.90;;;;;;5487290;26;20010;-83
2024/04/09 09:05:02;;;;;;;11.48;1.15;;;10.80;99.90;;;;;;5491737;26;20002;-86
2024/04/09 09:07:29;;;;;;;5.53;1.13;;;10.60;99.90;;;;;;5495068;26;20002;-87
2024/04/09 09:10:04;;;;;;;6.45;1.17;;;10.40;99.90;;;;;;5494348;26;20009;-85
2024/04/09 09:12:30;;;;;;;10.95;1.23;;;10.40;1.00;;;;;;5488603;26;19998;-86
2024/04/09 09:15:00;;;;;;;5.28;1.42;;;10.40;99.90;;;;;;5494967;26;20006;-85
2024/04/09 09:17:26;;;;;;;9.70;1.95;;;10.50;1.00;;;;;;5491069;26;19990;-87
2024/04/09 09:20:09;;;;;;;5.15;0.98;;;10.40;99.90;;;;;;5498811;26;20455;-83
2024/04/09 09:22:46;;;;;;;5.90;1.63;;;10.30;99.90;;;;;;5476398;26;20533;-87
2024/04/09 09:25:18;;;;;;;5.55;0.90;;;10.30;99.90;;;;;;5487981;26;20005;-82
2024/04/09 09:27:44;;;;;;;10.93;1.67;;;10.30;99.90;;;;;;5493181;26;20010;-86
2024/04/09 09:30:14;;;;;;;5.00;1.27;;;10.40;99.90;;;;;;5492316;26;19994;-85
2024/04/09 09:32:45;;;;;;;10.60;1.15;;;10.50;99.90;;;;;;5490257;26;20030;-86
2024/04/09 09:35:15;;;;;;;12.40;3.83;;;10.50;99.90;;;;;;5488559;26;20009;-87
2024/04/09 09:37:42;;;;;;;7.65;1.40;;;10.50;99.90;;;;;;5492511;26;19994;-86
2024/04/09 09:40:09;;;;;;;7.50;1.45;;;10.70;99.90;;;;;;5493461;26;20006;-86
2024/04/09 09:42:36;;;;;;;7.40;1.00;;;10.90;99.90;;;;;;5487865;26;19990;-83
2024/04/09 09:45:03;;;;;;;4.63;1.30;;;10.90;99.90;;;;;;5487455;26;19998;-88
2024/04/09 09:47:32;;;;;;;2.67;1.17;;;11.00;99.90;;;;;;5488983;26;19998;-84
2024/04/09 09:49:59;;;;;;;11.70;1.33;;;11.00;99.90;;;;;;5483866;26;20026;-83
2024/04/09 09:52:24;;;;;;;5.40;1.15;;;11.00;99.90;;;;;;5484860;26;20471;-85
2024/04/09 09:54:50;;;;;;;6.43;1.33;;;11.00;99.90;;;;;;5484948;26;19998;-85
2024/04/09 09:57:21;;;;;;;4.03;1.08;;;11.10;99.90;;;;;;5484199;26;20008;-83
2024/04/09 09:59:59;;;;;;;6.97;1.20;;;11.30;99.90;;;;;;5486552;26;20010;-85
2024/04/09 10:02:29;;;;;;;7.43;1.25;;;11.40;99.90;;;;;;5485594;26;20002;-86
2024/04/09 10:04:59;;;;;;;7.70;0.75;;;11.30;99.90;;;;;;5488030;26;20014;-87
2024/04/09 10:07:24;;;;;;;10.60;1.35;;;11.40;99.90;;;;;;5489146;26;19998;-85
2024/04/09 10:09:52;;;;;;;7.45;1.00;;;11.50;99.90;;;;;;5486465;26;20002;-85
2024/04/09 10:12:20;;;;;;;4.38;1.15;;;11.50;99.90;;;;;;5486410;26;20055;-87
2024/04/09 10:14:55;;;;;;;9.02;1.25;;;11.50;99.90;;;;;;5476104;26;19998;-84
2024/04/09 10:17:21;;;;;;;6.05;1.25;;;11.60;99.90;;;;;;5476028;26;20495;-83
2024/04/09 10:19:48;;;;;;;7.60;0.95;;;11.80;99.90;;;;;;5481186;26;20002;-85
2024/04/09 10:22:17;;;;;;;6.35;1.00;;;12.00;99.90;;;;;;5484852;26;20013;-86
2024/04/09 10:24:43;;;;;;;6.07;1.10;;;12.60;99.90;;;;;;5478311;26;20013;-84
2024/04/09 10:27:11;;;;;;;8.55;1.00;;;12.10;99.90;;;;;;5483933;26;20002;-85
2024/04/09 10:29:37;;;;;;;6.75;1.05;;;11.90;99.90;;;;;;5485844;26;20006;-84
2024/04/09 10:32:17;;;;;;;6.18;0.82;;;12.50;99.90;;;;;;5483302;26;20074;-84
2024/04/09 10:34:43;;;;;;;3.50;0.80;;;13.20;99.90;;;;;;5488948;26;20455;-84
2024/04/09 10:37:10;;;;;;;4.47;0.88;;;13.10;99.90;;;;;;5481294;26;20079;-85
2024/04/09 10:39:37;;;;;;;11.63;1.15;;;13.50;99.90;;;;;;5466520;26;20003;-88
2024/04/09 10:42:04;;;;;;;8.30;0.80;;;13.50;99.90;;;;;;5487954;26;20460;-86
2024/04/09 10:44:29;;;;;;;4.47;0.82;;;13.50;99.90;;;;;;5465245;26;20015;-83
2024/04/09 10:46:57;;;;;;;8.50;0.63;;;12.80;99.90;;;;;;5470546;26;20010;-84
2024/04/09 10:49:22;;;;;;;3.30;0.90;;;12.80;99.90;;;;;;5480007;26;20001;-84
2024/04/09 10:51:49;;;;;;;8.00;0.75;;;13.50;99.90;;;;;;5480469;26;20352;-83
2024/04/09 10:54:15;;;;;;;6.82;1.13;;;13.90;94.20;;;;;;5489943;26;20324;-84
2024/04/09 10:56:41;;;;;;;4.80;1.00;;;13.80;99.90;;;;;;5481569;26;20001;-83
2024/04/09 10:59:17;;;;;;;6.40;0.95;;;14.30;99.90;;;;;;5487495;26;19998;-83
2024/04/09 11:01:43;;;;;;;10.77;1.33;;;13.70;99.90;;;;;;5487350;26;20006;-83
2024/04/09 11:04:13;;;;;;;6.10;0.82;;;12.90;99.90;;;;;;5486035;26;19998;-81
2024/04/09 11:06:41;;;;;;;4.63;0.70;;;12.60;99.90;;;;;;5481838;26;20432;-87
2024/04/09 11:09:08;;;;;;;8.30;1.10;;;12.90;99.90;;;;;;5486451;26;20522;-79
2024/04/09 11:11:34;;;;;;;10.95;1.25;;;13.00;99.90;;;;;;5486014;26;20009;-78
2024/04/09 11:14:02;;;;;;;11.98;2.55;;;13.10;99.90;;;;;;5486084;26;20009;-79
2024/04/09 11:16:27;;;;;;;5.25;0.80;;;13.70;76.90;;;;;;5486262;26;20095;-79
2024/04/09 11:18:57;;;;;;;6.47;1.10;;;13.20;35.70;;;;;;5484881;26;20002;-79
2024/04/09 11:21:23;;;;;;;9.82;1.20;;;14.30;99.90;;;;;;5484777;26;20046;-81
2024/04/09 11:23:49;;;;;;;8.68;1.10;;;14.60;70.00;;;;;;5485943;26;19998;-80
2024/04/09 11:26:14;;;;;;;4.95;0.70;;;13.60;12.00;;;;;;5485609;26;20139;-80
2024/04/09 11:28:49;;;;;;;3.63;0.80;;;12.50;82.70;;;;;;5485213;26;20010;-79
2024/04/09 11:31:15;;;;;;;7.95;1.23;;;13.10;96.40;;;;;;5485667;26;20025;-80
2024/04/09 11:33:41;;;;;;;3.92;0.85;;;12.70;35.70;;;;;;5483382;26;20515;-79
2024/04/09 11:36:09;;;;;;;7.65;0.77;;;14.10;76.30;;;;;;5484782;26;19998;-80
2024/04/09 11:38:35;;;;;;;7.65;1.98;;;13.30;68.60;;;;;;5485379;26;19994;-79
2024/04/09 11:41:00;;;;;;;9.80;1.67;;;14.00;86.90;;;;;;5484782;26;20399;-80
2024/04/09 11:43:26;;;;;;;4.18;0.75;;;13.50;42.70;;;;;;5483554;26;20357;-78
2024/04/09 11:45:58;;;;;;;8.18;1.08;;;13.90;87.10;;;;;;5484264;26;19998;-80
2024/04/09 11:48:24;;;;;;;7.57;0.90;;;13.70;1.00;;;;;;5484259;26;20006;-79
2024/04/09 11:50:50;;;;;;;14.63;1.33;;;13.10;1.00;;;;;;5483715;26;20078;-80
2024/04/09 11:53:16;;;;;;;6.95;1.67;;;14.10;73.00;;;;;;5485351;26;20009;-81
2024/04/09 11:55:41;;;;;;;9.23;1.20;;;13.90;81.20;;;;;;5484279;26;19994;-83
2024/04/09 11:58:07;;;;;;;8.52;0.93;;;12.90;1.00;;;;;;5484703;26;19994;-82
2024/04/09 12:00:33;;;;;;;7.05;1.13;;;13.30;80.80;;;;;;5486255;26;20001;-80
2024/04/09 12:02:59;;;;;;;4.63;1.00;;;14.00;33.70;;;;;;5486374;26;19991;-87
2024/04/09 12:05:25;;;;;;;3.80;1.30;;;13.20;41.90;;;;;;5493334;26;20022;-85
2024/04/09 12:07:51;;;;;;;8.23;0.95;;;12.30;29.70;;;;;;5493407;26;19997;-85
2024/04/09 12:10:16;;;;;;;16.63;1.35;;;13.40;44.00;;;;;;5478571;26;19999;-81
2024/04/09 12:12:42;;;;;;;4.93;0.75;;;13.50;37.50;;;;;;5493744;26;20002;-85
2024/04/09 12:15:08;;;;;;;6.00;0.85;;;13.10;10.90;;;;;;5485452;26;20006;-83
2024/04/09 12:17:34;;;;;;;6.20;1.30;;;12.90;20.10;;;;;;5487291;26;20048;-86
2024/04/09 12:20:00;;;;;;;8.80;1.30;;;12.70;87.90;;;;;;5488677;26;20030;-85
2024/04/09 12:22:26;;;;;;;6.88;1.17;;;13.80;35.80;;;;;;5489072;26;20002;-84
2024/04/09 12:24:52;;;;;;;5.97;1.00;;;13.60;59.80;;;;;;5488331;26;20041;-83
2024/04/09 12:27:18;;;;;;;9.63;1.00;;;12.40;66.60;;;;;;5489821;26;19994;-85
2024/04/09 12:29:45;;;;;;;5.93;1.15;;;12.20;39.40;;;;;;5489906;26;20002;-86
2024/04/09 12:32:11;;;;;;;8.80;1.42;;;12.80;23.50;;;;;;5489302;26;20009;-86
2024/04/09 12:34:38;;;;;;;3.60;0.70;;;12.50;1.00;;;;;;5488122;26;20531;-85
2024/04/09 12:37:05;;;;;;;3.90;0.98;;;12.10;29.50;;;;;;5487769;26;20032;-83
2024/04/09 12:39:31;;;;;;;6.47;0.85;;;12.00;8.60;;;;;;5487816;26;20070;-85
2024/04/09 12:42:00;;;;;;;13.93;1.52;;;13.30;1.00;;;;;;5487197;26;20026;-88
2024/04/09 12:44:26;;;;;;;7.20;1.10;;;13.50;99.90;;;;;;5490453;26;20014;-88
2024/04/09 12:46:52;;;;;;;7.40;0.98;;;13.50;1.00;;;;;;5485597;26;20483;-85